Terminal Aerodrome Forecast
Issued by NWS

Home | Current Version | Previous Version | Text Only | Print | Product List | Glossary On
Versions: 1 2 3 4 5 6 7 8 9 10 11 12 13 14 15 16
058
FTUS46 KMTR 261733
TAFSJC
TAF
KSJC 261733Z 2618/2718 VRB03KT P6SM FEW010 BKN025 OVC040
     FM261900 29009KT P6SM FEW016 BKN030 OVC040
     FM262200 30011G16KT P6SM FEW022 BKN030 OVC035
     FM270300 30011G16KT P6SM FEW016 BKN025 OVC030
     FM270900 29006KT P6SM FEW011 BKN015 OVC020=

USA.gov is the U.S. government's official web portal to all federal, state and local government web resources and services.